Alum Creek, West Virginia
Current Conditions -  °F | °C
As of 4:54 AM on Friday 21 Nov 2014 (Local Time) from KCRW Reporting Station
Few Clouds Few Clouds  
Wind Chill: 18°   Ceiling: Unl
Heat Index: 25°   Visibility: 10mi
Dew Point: 15°   Wind: 6mph
Humidity: 66%   Direction: 250°WSW
Pressure: 30.35"   Gusts: NA
Location:  38.28°N, 81.84°W
Report Text: KCRW 210954Z 25005KT 10SM FEW038 M04/M09 A3035 RMK AO2 SLP286 T10391094
Loading
Personal Weather Stations






























Interactive Weather Map New forecast layout! Learn more

10-Day Weather Forecast

Advertisements
Track Severe Weather on mobile